Darstellungsparameter: Aktuell verwendete Einstellungen:
Skalierung der Graphiken ... ?
xyx+y,   Skalierungsfaktor:      Skalierung: Modus: x, Faktor: 1
Darstellungszeitraum ... ?
Vom - - bis: - -   Zeitraum: 03.02.2019 - 02.02.2020
Min/Max/Avg-Anzeige ... ?
Zeige MMA aktuell
Zeige MMA Monat
Zeige MMA alles
Zeige --A aktuell
Zeige --A Monat
Zeige --A alles
Keine MMA-Anzeige
MMA:
Keine MMA-Graphiken
MMA-Basis: 03.02.2019 - 02.02.2020
Quicknavigation für Darstellung... ?
Tage:      1T, 2T, 3T, 5T -1T -2T -3T -5T +1T +2T +3T +5T
Wochen: 1W, 2W, 3W -1W -2W -3W +1W +2W +3W
Monate: 1M, 3M, 6M -1M -3M -6M +1M +3M +6M
Jahre:    1J, 3J, 5J, 10J -1J -3J -5J -10J +1J +3J +5J +10J
Nutze für die Darstellung ... ?
Originaldaten oder ...
Mittelwerte Minima Maxima auf...
Stundenbasis Tagesbasis Wochenbasis
Monatsbasis Jahresbasis      Datenbasis: Mittelwerte auf Tagesbasis
Darstellen als:
Statistik (Auto) Statistik J:M      Darstellung:
Zur Graphik,    zurück zur Übersicht aller Sensoren.
 
Tabellarische Datenbersicht: ?
 
Sensor: Nr:Datum:Temp:Feuchte:Taupunkt:
Aussen-T/F 1 03-02-2019 00:00:00 2.7 C 88.6910 % 1.02 C
2 04-02-2019 00:00:00 1.83229 C 87.0625 % -0.09 C
3 05-02-2019 00:00:00 4.34375 C 81.1771 % 1.41 C
4 06-02-2019 00:00:00 1.17639 C 89.9688 % -0.28 C
5 07-02-2019 00:00:00 5.09549 C 88.0833 % 3.29 C
6 08-02-2019 00:00:00 7.42604 C 83.5417 % 4.83 C
7 09-02-2019 00:00:00 8.6309 C 79.8056 % 5.35 C
8 10-02-2019 00:00:00 7.96076 C 88.4965 % 6.18 C
9 11-02-2019 00:00:00 4.86736 C 86.4931 % 2.81 C
10 12-02-2019 00:00:00 3.71597 C 86.6563 % 1.7 C
11 13-02-2019 00:00:00 1.77951 C 91.5833 % 0.56 C
12 14-02-2019 00:00:00 0.77431 C 92.7674 % -0.26 C
13 15-02-2019 00:00:00 2.33854 C 89.2917 % 0.76 C
14 16-02-2019 00:00:00 3.375 C 88.6319 % 1.68 C
15 17-02-2019 00:00:00 3.45451 C 89.9236 % 1.96 C
16 18-02-2019 00:00:00 3.69653 C 86.8368 % 1.71 C
17 19-02-2019 00:00:00 5.85868 C 87.7118 % 3.98 C
18 20-02-2019 00:00:00 4.70694 C 89.0660 % 3.06 C
19 21-02-2019 00:00:00 6.3625 C 90.0174 % 4.85 C
20 22-02-2019 00:00:00 9.91111 C 88.0347 % 8.03 C
21 23-02-2019 00:00:00 5.41076 C 78.7188 % 2.02 C
22 24-02-2019 00:00:00 3.39271 C 73.0729 % -0.96 C
23 25-02-2019 00:00:00 5.05139 C 74.1181 % 0.83 C
24 26-02-2019 00:00:00 6.18646 C 80.1042 % 3.02 C
25 27-02-2019 00:00:00 6.63576 C 79.5313 % 3.36 C
Sensor: Nr:Datum:Temp:Feuchte:Taupunkt:
Aussen-T/F 26 28-02-2019 00:00:00 8.81701 C 78.9201 % 5.37 C
27 01-03-2019 00:00:00 8.12708 C 91.9583 % 6.9 C
28 02-03-2019 00:00:00 8.64236 C 85.0868 % 6.28 C
29 03-03-2019 00:00:00 11.11319 C 80.0069 % 7.8 C
30 04-03-2019 00:00:00 9.71875 C 78.3854 % 6.15 C
31 05-03-2019 00:00:00 6.87396 C 81.6181 % 3.95 C
32 06-03-2019 00:00:00 10.01944 C 78.9792 % 6.55 C
33 07-03-2019 00:00:00 10.20729 C 79.2014 % 6.77 C
34 08-03-2019 00:00:00 8.18854 C 79.1181 % 4.79 C
35 09-03-2019 00:00:00 10.36875 C 76.7188 % 6.46 C
36 10-03-2019 00:00:00 9.55694 C 76.8507 % 5.7 C
37 11-03-2019 00:00:00 4.7934 C 79.8264 % 1.61 C
38 12-03-2019 00:00:00 6.61563 C 70.1319 % 1.57 C
39 13-03-2019 00:00:00 6.20382 C 82.8472 % 3.51 C
40 14-03-2019 00:00:00 7.03611 C 87.2674 % 5.07 C
41 15-03-2019 00:00:00 10.13993 C 87.2014 % 8.11 C
42 16-03-2019 00:00:00 10.23472 C 85.5417 % 7.92 C
43 17-03-2019 00:00:00 8.66319 C 77.8160 % 5.02 C
44 18-03-2019 00:00:00 4.96458 C 85.1458 % 2.68 C
45 19-03-2019 00:00:00 3.83715 C 80.5000 % 0.8 C
46 20-03-2019 00:00:00 5.47951 C 77.2882 % 1.83 C
47 21-03-2019 00:00:00 7.53194 C 73.6076 % 3.13 C
48 22-03-2019 00:00:00 9.15799 C 72.1563 % 4.41 C
49 23-03-2019 00:00:00 6.18576 C 87.5035 % 4.27 C
50 24-03-2019 00:00:00 6.4583 C 83.7380 % 3.91 C
Sensor: Nr:Datum:Temp:Feuchte:Taupunkt:
Aussen-T/F 51 25-03-2019 00:00:00 5.13299 C 86.0243 % 2.99 C
52 26-03-2019 00:00:00 6.64792 C 81.5799 % 3.73 C
53 27-03-2019 00:00:00 6.81528 C 80.7535 % 3.75 C
54 28-03-2019 00:00:00 7.32535 C 81.7951 % 4.43 C
55 29-03-2019 00:00:00 8.96493 C 79.2708 % 5.57 C
56 30-03-2019 00:00:00 10.50104 C 72.7500 % 5.82 C
57 31-03-2019 00:00:00 10.31594 C 80.1486 % 7.05 C
58 01-04-2019 00:00:00 9.41771 C 75.2326 % 5.26 C
59 02-04-2019 00:00:00 10.74375 C 76.1979 % 6.73 C
60 03-04-2019 00:00:00 8.37083 C 86.8889 % 6.32 C
61 04-04-2019 00:00:00 6.05799 C 93.2604 % 5.05 C
62 05-04-2019 00:00:00 6.32535 C 92.0556 % 5.13 C
63 06-04-2019 00:00:00 10.20313 C 83.4549 % 7.53 C
64 07-04-2019 00:00:00 12.02083 C 75.0764 % 7.75 C
65 08-04-2019 00:00:00 12.69757 C 85.2188 % 10.28 C
66 09-04-2019 00:00:00 12.23472 C 88.4201 % 10.38 C
67 10-04-2019 00:00:00 10.80035 C 65.8750 % 4.69 C
68 11-04-2019 00:00:00 6.94306 C 60.9931 % -0.05 C
69 12-04-2019 00:00:00 5.01528 C 58.9653 % -2.32 C
70 13-04-2019 00:00:00 3.85556 C 75.6458 % -0.04 C
71 14-04-2019 00:00:00 5.53576 C 76.5590 % 1.75 C
72 15-04-2019 00:00:00 10.42187 C 69.5868 % 5.11 C
73 16-04-2019 00:00:00 11.20417 C 67.0417 % 5.32 C
74 17-04-2019 00:00:00 12.74861 C 83.8576 % 10.09 C
75 18-04-2019 00:00:00 14.16528 C 65.0556 % 7.7 C
Sensor: Nr:Datum:Temp:Feuchte:Taupunkt:
Aussen-T/F 76 19-04-2019 00:00:00 15.41285 C 56.3681 % 6.78 C
77 20-04-2019 00:00:00 14.87153 C 61.3125 % 7.5 C
78 21-04-2019 00:00:00 15.62813 C 58.4688 % 7.52 C
79 22-04-2019 00:00:00 14.99375 C 59.5382 % 7.19 C
80 23-04-2019 00:00:00 15.15903 C 61.0799 % 7.72 C
81 24-04-2019 00:00:00 15.11424 C 73.1042 % 10.34 C
82 25-04-2019 00:00:00 13.28785 C 78.5139 % 9.64 C
83 26-04-2019 00:00:00 11.86806 C 83.8681 % 9.23 C
84 27-04-2019 00:00:00 9.34688 C 89.7569 % 7.75 C
85 28-04-2019 00:00:00 8.50208 C 83.0000 % 5.79 C
86 29-04-2019 00:00:00 8.56736 C 84.4653 % 6.1 C
87 30-04-2019 00:00:00 14.05278 C 68.6979 % 8.39 C
88 01-05-2019 00:00:00 12.7816 C 76.3333 % 8.73 C
89 02-05-2019 00:00:00 11.4566 C 80.2535 % 8.18 C
90 03-05-2019 00:00:00 11.00208 C 73.3056 % 6.42 C
91 04-05-2019 00:00:00 6.36493 C 84.2014 % 3.9 C
92 05-05-2019 00:00:00 6.67882 C 81.4167 % 3.73 C
93 06-05-2019 00:00:00 7.62465 C 77.0660 % 3.87 C
94 07-05-2019 00:00:00 9.6066 C 73.7396 % 5.16 C
95 08-05-2019 00:00:00 9.41667 C 88.5972 % 7.63 C
96 09-05-2019 00:00:00 11.20938 C 88.9410 % 9.46 C
97 10-05-2019 00:00:00 12.49306 C 77.5833 % 8.69 C
98 11-05-2019 00:00:00 10.05833 C 93.1111 % 9 C
99 12-05-2019 00:00:00 9.40625 C 72.7778 % 4.78 C
100 13-05-2019 00:00:00 9.96736 C 61.6701 % 2.96 C
Sensor: Nr:Datum:Temp:Feuchte:Taupunkt:
Aussen-T/F 101 14-05-2019 00:00:00 9.58299 C 64.4479 % 3.22 C
102 15-05-2019 00:00:00 9.79896 C 60.9583 % 2.64 C
103 16-05-2019 00:00:00 10.83854 C 70.4271 % 5.68 C
104 17-05-2019 00:00:00 11.60069 C 89.4896 % 9.93 C
105 18-05-2019 00:00:00 14.44306 C 85.5035 % 12.04 C
106 19-05-2019 00:00:00 15.85694 C 83.5868 % 13.08 C
107 20-05-2019 00:00:00 13.90347 C 89.8125 % 12.26 C
108 21-05-2019 00:00:00 12.49722 C 93.0868 % 11.41 C
109 22-05-2019 00:00:00 13.38785 C 80.8681 % 10.17 C
110 23-05-2019 00:00:00 15.11875 C 74.1389 % 10.55 C
111 24-05-2019 00:00:00 16.93437 C 70.9271 % 11.63 C
112 25-05-2019 00:00:00 15.60035 C 67.4167 % 9.59 C
113 26-05-2019 00:00:00 15.92014 C 74.4549 % 11.39 C
114 27-05-2019 00:00:00 14.98924 C 90.8889 % 13.51 C
115 28-05-2019 00:00:00 13.95729 C 85.1146 % 11.5 C
116 29-05-2019 00:00:00 14.97951 C 68.2535 % 9.18 C
117 30-05-2019 00:00:00 15.62396 C 78.5069 % 11.9 C
118 31-05-2019 00:00:00 19.22674 C 74.1806 % 14.52 C
119 01-06-2019 00:00:00 19.98924 C 74.3090 % 15.28 C
120 02-06-2019 00:00:00 22.09028 C 70.5521 % 16.49 C
121 03-06-2019 00:00:00 20.85625 C 73.4583 % 15.94 C
122 04-06-2019 00:00:00 21.5059 C 73.6146 % 16.59 C
123 05-06-2019 00:00:00 23.45243 C 67.8507 % 17.17 C
124 06-06-2019 00:00:00 15.94271 C 78.5556 % 12.22 C
125 07-06-2019 00:00:00 15.6809 C 76.3646 % 11.54 C
Sensor: Nr:Datum:Temp:Feuchte:Taupunkt:
Aussen-T/F 126 08-06-2019 00:00:00 16.15243 C 62.7743 % 9.06 C
127 09-06-2019 00:00:00 16.23438 C 72.8542 % 11.36 C
128 10-06-2019 00:00:00 19.2684 C 73.8403 % 14.49 C
129 11-06-2019 00:00:00 17.19063 C 83.4826 % 14.37 C
130 12-06-2019 00:00:00 16.48854 C 82.3194 % 13.47 C
131 13-06-2019 00:00:00 15.92743 C 75.5694 % 11.62 C
132 14-06-2019 00:00:00 17.88507 C 82.6875 % 14.9 C
133 15-06-2019 00:00:00 19.62083 C 79.3646 % 15.95 C
134 16-06-2019 00:00:00 19.34479 C 71.4271 % 14.05 C
135 17-06-2019 00:00:00 18.93646 C 73.1111 % 14.02 C
136 18-06-2019 00:00:00 21.4625 C 72.7188 % 16.36 C
137 19-06-2019 00:00:00 22.17049 C 73.3125 % 17.17 C
138 20-06-2019 00:00:00 19.48229 C 80.3681 % 16.01 C
139 21-06-2019 00:00:00 18.55694 C 68.4306 % 12.64 C
140 22-06-2019 00:00:00 19.16771 C 69.5729 % 13.47 C
141 23-06-2019 00:00:00 21.78854 C 71.5521 % 16.42 C
142 24-06-2019 00:00:00 24.3809 C 68.9965 % 18.32 C
143 25-06-2019 00:00:00 26.30625 C 65.6458 % 19.36 C
144 26-06-2019 00:00:00 26.97257 C 66.5486 % 20.21 C
145 27-06-2019 00:00:00 24.42326 C 58.6910 % 15.81 C
146 28-06-2019 00:00:00 21.63368 C 60.1458 % 13.57 C
147 29-06-2019 00:00:00 24.00937 C 53.3750 % 13.95 C
148 30-06-2019 00:00:00 25.32014 C 62.4688 % 17.63 C
149 01-07-2019 00:00:00 22.68715 C 60.6875 % 14.7 C
150 02-07-2019 00:00:00 19.04306 C 61.0868 % 11.38 C
Sensor: Nr:Datum:Temp:Feuchte:Taupunkt:
Aussen-T/F 151 03-07-2019 00:00:00 17.43472 C 61.1146 % 9.87 C
152 04-07-2019 00:00:00 18.23021 C 56.4375 % 9.43 C
153 05-07-2019 00:00:00 20.73889 C 56.5486 % 11.8 C
154 06-07-2019 00:00:00 21.18681 C 61.5174 % 13.5 C
155 07-07-2019 00:00:00 17.74306 C 68.3819 % 11.85 C
156 08-07-2019 00:00:00 14.44931 C 70.9271 % 9.25 C
157 09-07-2019 00:00:00 15.40868 C 66.0868 % 9.11 C
158 10-07-2019 00:00:00 16.98854 C 57.9271 % 8.66 C
159 11-07-2019 00:00:00 17.76076 C 79.7500 % 14.22 C
160 12-07-2019 00:00:00 17.3375 C 92.0313 % 16.03 C
161 13-07-2019 00:00:00 17.99896 C 83.4549 % 15.15 C
162 14-07-2019 00:00:00 16.92569 C 75.5729 % 12.58 C
163 15-07-2019 00:00:00 16.34757 C 73.9826 % 11.7 C
164 16-07-2019 00:00:00 16.0375 C 75.3507 % 11.68 C
165 17-07-2019 00:00:00 17.21979 C 76.2847 % 13.01 C
166 18-07-2019 00:00:00 19.06944 C 74.1424 % 14.36 C
167 19-07-2019 00:00:00 20.2441 C 77.7257 % 16.23 C
168 20-07-2019 00:00:00 21.61736 C 75.2292 % 17.04 C
169 21-07-2019 00:00:00 21.96076 C 68.7569 % 15.96 C
170 22-07-2019 00:00:00 22.29861 C 66.0139 % 15.64 C
171 23-07-2019 00:00:00 25.05139 C 61.5764 % 17.15 C
172 24-07-2019 00:00:00 27.05069 C 57.6528 % 17.98 C
173 25-07-2019 00:00:00 28.69028 C 53.5729 % 18.33 C
174 26-07-2019 00:00:00 27.21528 C 56.0694 % 17.69 C
175 27-07-2019 00:00:00 23.20069 C 79.9340 % 19.54 C
Sensor: Nr:Datum:Temp:Feuchte:Taupunkt:
Aussen-T/F 176 28-07-2019 00:00:00 19.86597 C 90.5938 % 18.28 C
177 29-07-2019 00:00:00 21.16354 C 73.6146 % 16.26 C
178 30-07-2019 00:00:00 21.86528 C 66.5625 % 15.36 C
179 31-07-2019 00:00:00 21.06111 C 60.7778 % 13.2 C
180 01-08-2019 00:00:00 19.46424 C 65.5833 % 12.85 C
181 02-08-2019 00:00:00 20.52743 C 69.8611 % 14.84 C
182 03-08-2019 00:00:00 20.39271 C 72.5833 % 15.3 C
183 04-08-2019 00:00:00 20.53854 C 68.3681 % 14.51 C
184 05-08-2019 00:00:00 22.56562 C 67.3333 % 16.21 C
185 06-08-2019 00:00:00 19.97604 C 80.0104 % 16.42 C
186 07-08-2019 00:00:00 19.07535 C 87.4479 % 16.94 C
187 08-08-2019 00:00:00 20.39132 C 75.4826 % 15.91 C
188 09-08-2019 00:00:00 19.85833 C 86.8125 % 17.6 C
189 10-08-2019 00:00:00 20.67986 C 77.2986 % 16.56 C
190 11-08-2019 00:00:00 16.99444 C 80.9028 % 13.69 C
191 12-08-2019 00:00:00 16.4441 C 84.5729 % 13.84 C
192 13-08-2019 00:00:00 15.94306 C 78.5799 % 12.23 C
193 14-08-2019 00:00:00 16.52882 C 76.0139 % 12.29 C
194 15-08-2019 00:00:00 17.34306 C 88.4896 % 15.42 C
195 16-08-2019 00:00:00 17.72257 C 80.7049 % 14.37 C
196 17-08-2019 00:00:00 18.07049 C 86.6146 % 15.8 C
197 18-08-2019 00:00:00 19.8941 C 90.2847 % 18.25 C
198 19-08-2019 00:00:00 18.3684 C 77.8715 % 14.44 C
199 20-08-2019 00:00:00 15.78611 C 80.0347 % 12.35 C
200 21-08-2019 00:00:00 16.52222 C 75.4306 % 12.17 C
Sensor: Nr:Datum:Temp:Feuchte:Taupunkt:
Aussen-T/F 201 22-08-2019 00:00:00 17.27465 C 72.3576 % 12.26 C
202 23-08-2019 00:00:00 18.44792 C 70.9271 % 13.08 C
203 24-08-2019 00:00:00 19.52326 C 70.7153 % 14.06 C
204 25-08-2019 00:00:00 21.57431 C 75.4097 % 17.04 C
205 26-08-2019 00:00:00 22.3684 C 80.4097 % 18.83 C
206 27-08-2019 00:00:00 22.81979 C 79.4132 % 19.07 C
207 28-08-2019 00:00:00 23.38924 C 73.0868 % 18.29 C
208 29-08-2019 00:00:00 22.04201 C 76.9236 % 17.81 C
209 30-08-2019 00:00:00 21.0059 C 72.4444 % 15.86 C
210 31-08-2019 00:00:00 22.0566 C 72.1215 % 16.8 C
211 01-09-2019 00:00:00 18.73056 C 76.1563 % 14.45 C
212 02-09-2019 00:00:00 15.43958 C 67.8264 % 9.53 C
213 03-09-2019 00:00:00 15.68611 C 70.4340 % 10.33 C
214 04-09-2019 00:00:00 16.83646 C 77.0521 % 12.79 C
215 05-09-2019 00:00:00 15.41285 C 74.8958 % 10.99 C
216 06-09-2019 00:00:00 13.54271 C 71.3021 % 8.45 C
217 07-09-2019 00:00:00 12.95382 C 86.8160 % 10.81 C
218 08-09-2019 00:00:00 12.67778 C 94.2569 % 11.78 C
219 09-09-2019 00:00:00 12.50868 C 90.4583 % 10.99 C
220 10-09-2019 00:00:00 11.86563 C 85.2361 % 9.47 C
221 11-09-2019 00:00:00 13.34931 C 80.9444 % 10.15 C
222 12-09-2019 00:00:00 19.07292 C 78.3889 % 15.23 C
223 13-09-2019 00:00:00 17.76319 C 88.1424 % 15.78 C
224 14-09-2019 00:00:00 15.58229 C 81.1806 % 12.37 C
225 15-09-2019 00:00:00 15.40243 C 78.5451 % 11.69 C
Sensor: Nr:Datum:Temp:Feuchte:Taupunkt:
Aussen-T/F 226 16-09-2019 00:00:00 16.09444 C 78.7569 % 12.41 C
227 17-09-2019 00:00:00 15.6191 C 73.6736 % 10.94 C
228 18-09-2019 00:00:00 11.41215 C 73.9826 % 6.95 C
229 19-09-2019 00:00:00 10.47361 C 74.5903 % 6.16 C
230 20-09-2019 00:00:00 10.72153 C 72.3958 % 5.97 C
231 21-09-2019 00:00:00 12.32465 C 69.3090 % 6.87 C
232 22-09-2019 00:00:00 14.8625 C 75.8819 % 10.65 C
233 23-09-2019 00:00:00 16.54479 C 84.7118 % 13.96 C
234 24-09-2019 00:00:00 14.13194 C 90.2847 % 12.57 C
235 25-09-2019 00:00:00 15.26806 C 90.7986 % 13.77 C
236 26-09-2019 00:00:00 16.26111 C 92.6840 % 15.07 C
237 27-09-2019 00:00:00 16.20451 C 86.9097 % 14.02 C
238 28-09-2019 00:00:00 15.30903 C 84.9306 % 12.79 C
239 29-09-2019 00:00:00 16.12778 C 82.9965 % 13.24 C
240 30-09-2019 00:00:00 15.31424 C 80.2917 % 11.94 C
241 01-10-2019 00:00:00 15.98125 C 88.2743 % 14.04 C
242 02-10-2019 00:00:00 12.49479 C 83.0764 % 9.7 C
243 03-10-2019 00:00:00 9.77535 C 90.5313 % 8.3 C
244 04-10-2019 00:00:00 10.31563 C 95.1563 % 9.58 C
245 05-10-2019 00:00:00 10.64965 C 87.9444 % 8.74 C
246 06-10-2019 00:00:00 8.34063 C 95.9896 % 7.74 C
247 07-10-2019 00:00:00 10.09167 C 94.3785 % 9.23 C
248 08-10-2019 00:00:00 12.83333 C 94.7292 % 12.01 C
249 09-10-2019 00:00:00 11.68715 C 92.5069 % 10.51 C
250 10-10-2019 00:00:00 11.67509 C 86.3404 % 9.47 C
Sensor: Nr:Datum:Temp:Feuchte:Taupunkt:
Aussen-T/F 251 11-10-2019 00:00:00 12.72361 C 89.2500 % 11 C
252 12-10-2019 00:00:00 13.63368 C 89.1597 % 11.88 C
253 13-10-2019 00:00:00 16.44722 C 91.2153 % 15.01 C
254 14-10-2019 00:00:00 16.00938 C 89.6632 % 14.31 C
255 15-10-2019 00:00:00 14.32674 C 92.2014 % 13.08 C
256 16-10-2019 00:00:00 12.65347 C 94.1042 % 11.73 C
257 17-10-2019 00:00:00 14.64826 C 90.9861 % 13.19 C
258 18-10-2019 00:00:00 12.52604 C 91.7500 % 11.22 C
259 19-10-2019 00:00:00 12.88561 C 90.9460 % 11.44 C
260 20-10-2019 00:00:00 13.60139 C 97.5645 % 13.22 C
261 21-10-2019 00:00:00 13.67735 C 93.5157 % 12.65 C
262 22-10-2019 00:00:00 11.49819 C 91.8520 % 10.22 C
263 23-10-2019 00:00:00 11.05972 C 94.7847 % 10.26 C
264 24-10-2019 00:00:00 14.06458 C 92.1528 % 12.81 C
265 25-10-2019 00:00:00 13.32951 C 87.3889 % 11.28 C
266 26-10-2019 00:00:00 13.17604 C 91.4201 % 11.81 C
267 27-10-2019 00:00:00 10.25174 C 93.0868 % 9.19 C
268 28-10-2019 00:00:00 6.33854 C 96.7847 % 5.87 C
269 29-10-2019 00:00:00 6.56632 C 92.0972 % 5.38 C
270 30-10-2019 00:00:00 3.52778 C 93.9410 % 2.65 C
271 31-10-2019 00:00:00 2.23438 C 93.5799 % 1.31 C
272 01-11-2019 00:00:00 6.02465 C 96.1736 % 5.46 C
273 02-11-2019 00:00:00 13.19792 C 90.2188 % 11.63 C
274 03-11-2019 00:00:00 11.85035 C 91.8125 % 10.56 C
275 04-11-2019 00:00:00 10.33333 C 92.9306 % 9.24 C
Sensor: Nr:Datum:Temp:Feuchte:Taupunkt:
Aussen-T/F 276 05-11-2019 00:00:00 9.70972 C 89.4826 % 8.07 C
277 06-11-2019 00:00:00 8.97569 C 95.1563 % 8.24 C
278 07-11-2019 00:00:00 7.93611 C 95.3368 % 7.24 C
279 08-11-2019 00:00:00 4.99444 C 96.5208 % 4.49 C
280 09-11-2019 00:00:00 4.99167 C 94.0208 % 4.11 C
281 10-11-2019 00:00:00 3.02188 C 95.6250 % 2.39 C
282 11-11-2019 00:00:00 4.67986 C 91.5590 % 3.43 C
283 12-11-2019 00:00:00 5.9125 C 88.3194 % 4.13 C
284 13-11-2019 00:00:00 5.47431 C 88.2153 % 3.68 C
285 14-11-2019 00:00:00 5.50729 C 85.9549 % 3.35 C
286 15-11-2019 00:00:00 4.68958 C 88.1493 % 2.9 C
287 16-11-2019 00:00:00 2.11389 C 95.5069 % 1.47 C
288 17-11-2019 00:00:00 3.09271 C 97.1215 % 2.68 C
289 18-11-2019 00:00:00 4.31181 C 96.2604 % 3.77 C
290 19-11-2019 00:00:00 3.99132 C 94.7500 % 3.23 C
291 20-11-2019 00:00:00 1.59583 C 94.7847 % 0.85 C
292 21-11-2019 00:00:00 1.90833 C 96.0347 % 1.34 C
293 22-11-2019 00:00:00 4.39097 C 95.3056 % 3.71 C
294 23-11-2019 00:00:00 5.38785 C 93.0174 % 4.35 C
295 24-11-2019 00:00:00 2.90104 C 97.1979 % 2.5 C
296 25-11-2019 00:00:00 4.80833 C 97.1042 % 4.39 C
297 26-11-2019 00:00:00 8.38542 C 94.7500 % 7.59 C
298 27-11-2019 00:00:00 10.34479 C 89.7222 % 8.73 C
299 28-11-2019 00:00:00 10.92778 C 83.5694 % 8.26 C
300 29-11-2019 00:00:00 6.44618 C 89.1771 % 4.8 C
Sensor: Nr:Datum:Temp:Feuchte:Taupunkt:
Aussen-T/F 301 30-11-2019 00:00:00 1.19549 C 96.2257 % 0.66 C
302 01-12-2019 00:00:00 1.79271 C 92.4965 % 0.71 C
303 02-12-2019 00:00:00 1.98646 C 93.2778 % 1.02 C
304 03-12-2019 00:00:00 4.75729 C 96.0625 % 4.18 C
305 04-12-2019 00:00:00 1.34375 C 96.3681 % 0.83 C
306 05-12-2019 00:00:00 -1.15625 C 96.9167 % -1.58 C
307 06-12-2019 00:00:00 3.41285 C 93.3160 % 2.44 C
308 07-12-2019 00:00:00 8.70903 C 88.7882 % 6.97 C
309 08-12-2019 00:00:00 10.05903 C 86.0243 % 7.83 C
310 09-12-2019 00:00:00 7.72222 C 84.5833 % 5.29 C
311 10-12-2019 00:00:00 3.24757 C 90.9167 % 1.91 C
312 11-12-2019 00:00:00 3.97292 C 94.6632 % 3.2 C
313 12-12-2019 00:00:00 3.52361 C 93.9618 % 2.65 C
314 13-12-2019 00:00:00 4.09722 C 92.0938 % 2.93 C
315 14-12-2019 00:00:00 6.8934 C 85.5833 % 4.65 C
316 15-12-2019 00:00:00 7.90069 C 88.2847 % 6.09 C
317 16-12-2019 00:00:00 8.12951 C 96.7951 % 7.65 C
318 17-12-2019 00:00:00 10.43056 C 89.8924 % 8.85 C
319 18-12-2019 00:00:00 7.77014 C 93.5347 % 6.79 C
320 19-12-2019 00:00:00 5.57986 C 95.8611 % 4.97 C
321 20-12-2019 00:00:00 7.73264 C 92.3542 % 6.57 C
322 21-12-2019 00:00:00 7.24826 C 90.1111 % 5.74 C
323 22-12-2019 00:00:00 8.18368 C 89.0243 % 6.49 C
324 23-12-2019 00:00:00 7.83021 C 88.5660 % 6.06 C
325 24-12-2019 00:00:00 7.67986 C 89.1910 % 6.02 C
Sensor: Nr:Datum:Temp:Feuchte:Taupunkt:
Aussen-T/F 326 25-12-2019 00:00:00 7.66389 C 90.7500 % 6.25 C
327 26-12-2019 00:00:00 4.9934 C 96.1910 % 4.44 C
328 27-12-2019 00:00:00 5.12153 C 94.6042 % 4.33 C
329 28-12-2019 00:00:00 -0.27465 C 95.9965 % -0.83 C
330 29-12-2019 00:00:00 -1.04618 C 95.4028 % -1.69 C
331 30-12-2019 00:00:00 -0.88507 C 94.5521 % -1.65 C
332 31-12-2019 00:00:00 0.52326 C 93.2639 % -0.44 C
333 01-01-2020 00:00:00 0.89583 C 94.9653 % 0.18 C
334 02-01-2020 00:00:00 1.68611 C 94.9097 % 0.96 C
335 03-01-2020 00:00:00 7.56111 C 91.1042 % 6.21 C
336 04-01-2020 00:00:00 5.45936 C 89.2438 % 3.83 C
337 05-01-2020 00:00:00 5.96021 C 93.0845 % 4.93 C
338 06-01-2020 00:00:00 2.98542 C 93.2813 % 2.01 C
339 07-01-2020 00:00:00 5.07812 C 92.2535 % 3.93 C
340 08-01-2020 00:00:00 8.28333 C 92.5347 % 7.15 C
341 09-01-2020 00:00:00 10.92535 C 92.7778 % 9.8 C
342 10-01-2020 00:00:00 8.91667 C 88.2604 % 7.08 C
343 11-01-2020 00:00:00 4.34236 C 88.6354 % 2.64 C
344 12-01-2020 00:00:00 5.14718 C 87.9120 % 3.31 C
345 13-01-2020 00:00:00 6.54201 C 91.7431 % 5.3 C
346 14-01-2020 00:00:00 9.77153 C 77.8924 % 6.11 C
347 15-01-2020 00:00:00 10.89063 C 76.6285 % 6.95 C
348 16-01-2020 00:00:00 7.81181 C 95.4653 % 7.13 C
349 17-01-2020 00:00:00 6.03854 C 93.7014 % 5.1 C
350 18-01-2020 00:00:00 4.44062 C 88.2049 % 2.66 C
Sensor: Nr:Datum:Temp:Feuchte:Taupunkt:
Aussen-T/F 351 19-01-2020 00:00:00 3.78507 C 94.1736 % 2.94 C
352 20-01-2020 00:00:00 2.42431 C 91.7396 % 1.22 C
353 21-01-2020 00:00:00 -1.80243 C 96.3750 % -2.3 C
354 22-01-2020 00:00:00 -1.19236 C 97.1354 % -1.59 C
355 23-01-2020 00:00:00 1.30764 C 97.1111 % 0.9 C
356 24-01-2020 00:00:00 1.43415 C 91.4390 % 0.2 C
357 25-01-2020 00:00:00 2.65128 C 94.0366 % 1.79 C
358 26-01-2020 00:00:00 2.81007 C 94.9063 % 2.08 C
359 27-01-2020 00:00:00 6.29028 C 94.0347 % 5.4 C
360 28-01-2020 00:00:00 5.69583 C 86.0521 % 3.55 C
361 29-01-2020 00:00:00 4.80035 C 82.8264 % 2.14 C
362 30-01-2020 00:00:00 7.99861 C 84.7257 % 5.59 C
363 31-01-2020 00:00:00 13.03785 C 84.2014 % 10.44 C
364 01-02-2020 00:00:00 11.64167 C 87.8160 % 9.69 C
365 02-02-2020 00:00:00 10.18611 C 84.6319 % 7.72 C

Maximal/Minimal-Werte vom 03.02.2019 - 02.02.2020

Sensor Min Max Avg
Temp
(Aussen-T/F)
-3.6 °C
29-12-2019  07:25:00
40.4 °C
25-07-2019  16:20:00
11.62 °C
Feuchte
(Aussen-T/F)
19 %
06-07-2019  15:50:00
99 %
21-10-2019  10:45:00
82.07 %
Taupunkt
(Aussen-T/F)
-2.32 C
12-04-2019  00:00:00
20.21 C
26-06-2019  00:00:00
8.46 C

Die Daten stammen von einer Davis Vantage Pro 2 Wetter-Station und werden unter Linux mit der Software wview2wettercgi und aufbereitet. Alle Angaben erfolgen ohne Gewähr für ihre Vollständigkeit oder Richtigkeit.
Kontakt: Rainer Krienke krienke@uni-koblenz.de . Meine Webseiten an der Uni Koblenz oder privat.
Version: $Revision: 0.78 $